Campbell Island, Canada
Current Conditions -  °F | °C
As of 1:00 PM on Sunday 23 Nov 2014 (Local Time) from CYZT Reporting Station
Scattered Clouds Scattered Clouds  
Wind Chill: 41°   Ceiling: Unl
Heat Index: 46°   Visibility: 20mi
Dew Point: 43°   Wind: 12mph
Humidity: 87%   Direction: 210°SSW
Pressure: 30.08"   Gusts: NA
Location:  52.16°N, 128.14°W
Report Text: CYZT 232100Z 21010KT 20SM FEW025 SCT048TCU SCT120 08/06 A3008 RMK CF1TCU3AC1 CF TR SLP187
Loading
Personal Weather Stations






























Interactive Weather Map New forecast layout! Learn more

10-Day Weather Forecast

Advertisements
Track Severe Weather on mobile